Time;durP1;ratioP1;P1;durP2;ratioP2;P2;SDS_P1;SDS_P2;PMS_P1;PMS_P2;Temp;Humidity;BMP_temperature;BMP_pressure;BME280_temperature;BME280_humidity;BME280_pressure;Samples;Min_cycle;Max_cycle;Signal;HPM_P1;HPM_P2
2022/06/20 00:02:17;;;;;;;;;;;13.50;99.90;;;;;;5053328;28;19917;-74
2022/06/20 00:04:42;;;;;;;;;;;13.60;99.90;;;;;;5081667;28;19956;-76
2022/06/20 00:07:08;;;;;;;;;;;13.60;99.90;;;;;;5086012;28;19962;-77
2022/06/20 00:09:34;;;;;;;;;;;13.60;99.90;;;;;;5089507;28;19928;-74
2022/06/20 00:11:59;;;;;;;;;;;13.50;99.90;;;;;;5077601;28;19916;-79
2022/06/20 00:14:25;;;;;;;;;;;13.50;99.90;;;;;;5086905;28;19924;-80
2022/06/20 00:16:50;;;;;;;;;;;13.40;99.90;;;;;;5088565;28;19912;-78
2022/06/20 00:19:16;;;;;;;;;;;13.30;99.90;;;;;;5076162;28;19998;-76
2022/06/20 00:21:42;;;;;;;;;;;13.30;99.90;;;;;;5064721;28;19965;-78
2022/06/20 00:24:07;;;;;;;;;;;13.20;99.90;;;;;;5087021;28;19913;-75
2022/06/20 00:26:34;;;;;;;;;;;13.20;99.90;;;;;;5081095;28;19919;-78
2022/06/20 00:29:01;;;;;;;;;;;13.20;99.90;;;;;;5080441;28;20330;-82
2022/06/20 00:31:27;;;;;;;;;;;13.20;99.90;;;;;;5082669;28;19982;-79
2022/06/20 00:33:52;;;;;;;;;;;13.10;99.90;;;;;;5083001;28;20307;-83
2022/06/20 00:36:18;;;;;;;;;;;13.10;99.90;;;;;;5085074;28;20244;-82
2022/06/20 00:38:44;;;;;;;;;;;13.00;99.90;;;;;;5068399;28;20218;-80
2022/06/20 00:41:14;;;;;;;;;;;13.10;99.90;;;;;;5064154;28;20218;-78
2022/06/20 00:43:41;;;;;;;;;;;13.20;99.90;;;;;;5070181;28;20299;-80
2022/06/20 00:46:09;;;;;;;;;;;13.10;99.90;;;;;;5080044;28;19913;-81
2022/06/20 00:48:41;;;;;;;;;;;13.10;99.90;;;;;;5081503;28;20059;-79
2022/06/20 00:51:32;;;;;;;;;;;13.20;99.90;;;;;;5088914;28;20223;-81
2022/06/20 00:54:02;;;;;;;;;;;13.10;99.90;;;;;;5064066;28;19916;-78
2022/06/20 00:56:30;;;;;;;;;;;13.00;99.90;;;;;;5081518;28;19952;-80
2022/06/20 00:58:59;;;;;;;;;;;13.00;99.90;;;;;;5062118;28;19912;-78
2022/06/20 01:01:34;;;;;;;;;;;13.00;99.90;;;;;;5087091;28;20192;-84
2022/06/20 01:04:02;;;;;;;;;;;13.00;99.90;;;;;;5086260;28;19959;-79
2022/06/20 01:06:30;;;;;;;;;;;13.10;99.90;;;;;;5073717;28;19967;-76
2022/06/20 01:09:06;;;;;;;;;;;13.00;99.90;;;;;;5089170;28;19942;-77
2022/06/20 01:11:47;;;;;;;;;;;13.00;99.90;;;;;;5075758;28;20011;-76
2022/06/20 01:14:22;;;;;;;;;;;12.90;99.90;;;;;;5068709;28;19944;-76
2022/06/20 01:16:48;;;;;;;;;;;12.90;99.90;;;;;;5086436;28;19916;-78
2022/06/20 01:19:22;;;;;;;;;;;12.90;99.90;;;;;;5075782;28;19912;-77
2022/06/20 01:21:48;;;;;;;;;;;12.80;99.90;;;;;;5074267;28;20265;-75
2022/06/20 01:24:23;;;;;;;;;;;12.70;99.90;;;;;;5068799;28;19999;-75
2022/06/20 01:26:54;;;;;;;;;;;12.70;99.90;;;;;;5086260;28;20219;-76
2022/06/20 01:29:20;;;;;;;;;;;12.80;99.90;;;;;;5082305;28;19912;-76
2022/06/20 01:31:56;;;;;;;;;;;12.80;99.90;;;;;;5060146;28;19916;-77
2022/06/20 01:34:22;;;;;;;;;;;12.80;99.90;;;;;;5080816;28;19961;-77
2022/06/20 01:39:35;;;;;;;;;;;12.90;99.90;;;;;;5077955;28;19923;-80
2022/06/20 01:42:20;;;;;;;;;;;12.90;99.90;;;;;;5083217;28;19970;-75
2022/06/20 01:44:47;;;;;;;;;;;12.90;99.90;;;;;;5078079;28;19913;-77
2022/06/20 01:47:13;;;;;;;;;;;13.00;99.90;;;;;;5083050;28;20215;-78
2022/06/20 01:49:40;;;;;;;;;;;12.90;99.90;;;;;;5088212;28;19920;-78
2022/06/20 01:52:08;;;;;;;;;;;12.90;99.90;;;;;;5085412;28;20207;-80
2022/06/20 01:54:36;;;;;;;;;;;12.90;99.90;;;;;;5085163;28;19912;-74
2022/06/20 01:57:03;;;;;;;;;;;12.90;99.90;;;;;;5083746;28;19913;-78
2022/06/20 01:59:45;;;;;;;;;;;12.90;99.90;;;;;;5084156;28;19916;-77
2022/06/20 02:02:11;;;;;;;;;;;12.90;99.90;;;;;;5052741;28;19916;-76
2022/06/20 02:04:37;;;;;;;;;;;12.90;99.90;;;;;;5081848;28;19919;-79
2022/06/20 02:07:06;;;;;;;;;;;12.80;99.90;;;;;;5084024;28;19916;-79
2022/06/20 02:09:32;;;;;;;;;;;12.90;99.90;;;;;;5087343;28;19995;-81
2022/06/20 02:11:58;;;;;;;;;;;12.80;99.90;;;;;;5091896;28;20003;-77
2022/06/20 02:14:26;;;;;;;;;;;12.80;99.90;;;;;;5086591;28;19924;-80
2022/06/20 02:16:54;;;;;;;;;;;12.80;99.90;;;;;;5083230;28;19912;-77
2022/06/20 02:19:24;;;;;;;;;;;12.80;99.90;;;;;;5085634;28;19912;-79
2022/06/20 02:21:52;;;;;;;;;;;12.80;99.90;;;;;;5067113;28;20247;-78
2022/06/20 02:24:19;;;;;;;;;;;12.80;99.90;;;;;;5082004;28;19919;-79
2022/06/20 02:26:47;;;;;;;;;;;12.90;99.90;;;;;;5083614;28;19919;-82
2022/06/20 02:29:26;;;;;;;;;;;12.80;99.90;;;;;;5085845;28;19919;-78
2022/06/20 02:32:12;;;;;;;;;;;12.70;99.90;;;;;;5074918;28;19920;-76
2022/06/20 02:34:38;;;;;;;;;;;12.70;99.90;;;;;;5063576;28;19966;-78
2022/06/20 02:37:09;;;;;;;;;;;12.60;99.90;;;;;;5079343;28;19962;-82
2022/06/20 02:39:37;;;;;;;;;;;12.50;99.90;;;;;;5087087;28;19920;-80
2022/06/20 02:42:04;;;;;;;;;;;12.40;99.90;;;;;;5071060;28;19972;-82
2022/06/20 02:44:31;;;;;;;;;;;12.40;99.90;;;;;;5083593;28;19920;-81
2022/06/20 02:46:57;;;;;;;;;;;12.40;99.90;;;;;;5080694;28;19916;-87
2022/06/20 02:49:24;;;;;;;;;;;12.30;99.90;;;;;;5069930;28;19912;-84
2022/06/20 02:51:51;;;;;;;;;;;12.30;99.90;;;;;;5086643;28;20235;-87
2022/06/20 02:54:18;;;;;;;;;;;12.20;99.90;;;;;;5073939;28;19923;-84
2022/06/20 02:56:49;;;;;;;;;;;12.20;99.90;;;;;;5068888;28;19999;-87
2022/06/20 02:59:17;;;;;;;;;;;12.20;99.90;;;;;;5072366;28;19912;-86
2022/06/20 03:01:52;;;;;;;;;;;12.10;99.90;;;;;;5046136;28;19920;-83
2022/06/20 03:04:18;;;;;;;;;;;12.00;99.90;;;;;;5088291;28;19913;-78
2022/06/20 03:06:49;;;;;;;;;;;11.90;99.90;;;;;;5091711;28;19923;-85
2022/06/20 03:09:17;;;;;;;;;;;11.90;99.90;;;;;;5088555;28;19912;-79
2022/06/20 03:11:43;;;;;;;;;;;11.80;99.90;;;;;;5080997;28;19923;-80
2022/06/20 03:14:11;;;;;;;;;;;11.90;99.90;;;;;;5089001;28;19943;-86
2022/06/20 03:16:39;;;;;;;;;;;11.90;99.90;;;;;;5084483;28;19927;-86
2022/06/20 03:19:06;;;;;;;;;;;11.90;99.90;;;;;;5093767;28;20527;-85
2022/06/20 03:21:35;;;;;;;;;;;11.90;99.90;;;;;;5092970;28;20015;-86
2022/06/20 03:24:01;;;;;;;;;;;11.90;99.90;;;;;;5070546;28;19960;-85
2022/06/20 03:26:27;;;;;;;;;;;12.00;99.90;;;;;;5087707;28;19955;-82
2022/06/20 03:28:53;;;;;;;;;;;11.90;99.90;;;;;;5086922;28;19965;-88
2022/06/20 03:31:19;;;;;;;;;;;11.90;99.90;;;;;;5094377;28;21421;-85
2022/06/20 03:33:45;;;;;;;;;;;11.80;99.90;;;;;;5077235;28;20078;-84
2022/06/20 03:36:13;;;;;;;;;;;11.90;99.90;;;;;;5077902;28;19999;-84
2022/06/20 03:38:39;;;;;;;;;;;11.80;99.90;;;;;;5093730;28;19916;-86
2022/06/20 03:41:05;;;;;;;;;;;11.70;99.90;;;;;;5087508;28;19912;-85
2022/06/20 03:43:32;;;;;;;;;;;11.70;99.90;;;;;;5092890;28;19938;-84
2022/06/20 03:46:18;;;;;;;;;;;11.70;99.90;;;;;;5072900;28;19920;-83
2022/06/20 03:48:46;;;;;;;;;;;11.70;99.90;;;;;;5091939;28;20202;-85
2022/06/20 03:51:23;;;;;;;;;;;11.80;99.90;;;;;;5072154;28;19912;-85
2022/06/20 03:53:54;;;;;;;;;;;11.80;99.90;;;;;;5071368;28;19967;-80
2022/06/20 03:56:31;;;;;;;;;;;11.80;99.90;;;;;;5087372;28;20432;-85
2022/06/20 03:59:12;;;;;;;;;;;11.80;99.90;;;;;;5086958;28;19923;-81
2022/06/20 04:01:54;;;;;;;;;;;11.80;99.90;;;;;;5047876;28;20479;-82
2022/06/20 04:04:23;;;;;;;;;;;11.90;99.90;;;;;;5069325;28;19959;-81
2022/06/20 04:06:55;;;;;;;;;;;12.00;99.90;;;;;;5076310;28;20025;-82
2022/06/20 04:12:12;;;;;;;;;;;12.00;99.90;;;;;;5059950;28;19931;-85
2022/06/20 04:14:46;;;;;;;;;;;12.10;99.90;;;;;;5072476;28;20344;-84
2022/06/20 04:20:06;;;;;;;;;;;12.30;99.90;;;;;;5090187;28;19947;-80
2022/06/20 04:22:33;;;;;;;;;;;12.30;99.90;;;;;;5088705;28;19920;-81
2022/06/20 04:25:13;;;;;;;;;;;12.40;99.90;;;;;;5086489;28;20351;-81
2022/06/20 04:27:44;;;;;;;;;;;12.40;99.90;;;;;;5072256;28;19916;-75
2022/06/20 04:30:19;;;;;;;;;;;12.40;99.90;;;;;;5093507;28;20003;-75
2022/06/20 04:32:47;;;;;;;;;;;12.40;99.90;;;;;;5085223;28;19924;-76
2022/06/20 04:35:19;;;;;;;;;;;12.50;99.90;;;;;;5084685;28;19919;-75
2022/06/20 04:37:56;;;;;;;;;;;12.50;99.90;;;;;;5075699;28;19923;-77
2022/06/20 04:40:23;;;;;;;;;;;12.60;99.90;;;;;;5079649;28;20015;-75
2022/06/20 04:43:01;;;;;;;;;;;12.60;99.90;;;;;;5075773;28;19943;-74
2022/06/20 04:45:32;;;;;;;;;;;12.70;99.90;;;;;;5080562;28;20366;-75
2022/06/20 04:47:59;;;;;;;;;;;12.60;99.90;;;;;;5081495;28;19916;-76
2022/06/20 04:50:26;;;;;;;;;;;12.60;99.90;;;;;;5075571;28;19936;-76
2022/06/20 04:52:53;;;;;;;;;;;12.70;99.90;;;;;;5074978;28;19916;-74
2022/06/20 04:55:23;;;;;;;;;;;12.70;99.90;;;;;;5082132;28;19920;-76
2022/06/20 04:57:50;;;;;;;;;;;12.70;99.90;;;;;;5065696;28;20001;-75
2022/06/20 05:00:19;;;;;;;;;;;12.80;99.90;;;;;;5027827;28;19916;-74
2022/06/20 05:02:45;;;;;;;;;;;12.80;99.90;;;;;;5071900;28;19912;-76
2022/06/20 05:05:18;;;;;;;;;;;12.90;99.90;;;;;;5064015;28;19909;-75
2022/06/20 05:07:45;;;;;;;;;;;13.00;99.90;;;;;;5084895;28;19923;-80
2022/06/20 05:10:16;;;;;;;;;;;13.10;99.90;;;;;;5086031;28;19924;-75
2022/06/20 05:12:49;;;;;;;;;;;13.10;99.90;;;;;;5082218;28;19925;-75
2022/06/20 05:15:21;;;;;;;;;;;13.30;99.90;;;;;;5074750;28;20346;-75
2022/06/20 05:17:47;;;;;;;;;;;13.40;99.90;;;;;;4986246;28;19927;-76
2022/06/20 05:20:28;;;;;;;;;;;13.40;99.90;;;;;;4987902;28;19928;-74
2022/06/20 05:22:59;;;;;;;;;;;13.50;99.90;;;;;;4985736;28;19917;-76
2022/06/20 05:25:25;;;;;;;;;;;13.50;99.90;;;;;;4984959;28;24214;-76
2022/06/20 05:27:59;;;;;;;;;;;13.60;99.90;;;;;;4984997;28;20344;-74
2022/06/20 05:30:28;;;;;;;;;;;13.70;99.90;;;;;;4966771;28;19917;-74
2022/06/20 05:33:04;;;;;;;;;;;13.70;99.90;;;;;;4983485;28;21172;-76
2022/06/20 05:35:37;;;;;;;;;;;13.70;99.90;;;;;;4984021;28;19927;-73
2022/06/20 05:38:07;;;;;;;;;;;13.80;99.90;;;;;;4983591;28;19916;-72
2022/06/20 05:40:50;;;;;;;;;;;14.00;99.90;;;;;;4986538;28;19916;-74
2022/06/20 05:43:22;;;;;;;;;;;13.90;99.90;;;;;;4986035;28;19972;-75
2022/06/20 05:46:08;;;;;;;;;;;13.90;99.90;;;;;;4967746;28;19948;-75
2022/06/20 05:48:39;;;;;;;;;;;13.80;99.90;;;;;;4947954;28;19916;-73
2022/06/20 05:51:06;;;;;;;;;;;13.70;99.90;;;;;;4987081;28;19920;-77
2022/06/20 05:53:43;;;;;;;;;;;13.70;99.90;;;;;;4965537;28;19928;-76
2022/06/20 05:56:21;;;;;;;;;;;13.80;99.90;;;;;;4982981;28;20005;-77
2022/06/20 05:58:47;;;;;;;;;;;13.80;99.90;;;;;;4985479;28;19916;-72
2022/06/20 06:01:18;;;;;;;;;;;13.90;99.90;;;;;;4984288;28;19916;-75
2022/06/20 06:03:43;;;;;;;;;;;13.90;99.90;;;;;;4967479;28;19984;-73
2022/06/20 06:06:17;;;;;;;;;;;13.90;99.90;;;;;;4966100;28;19924;-77
2022/06/20 06:08:47;;;;;;;;;;;14.00;99.90;;;;;;4980887;28;19920;-75
2022/06/20 06:11:19;;;;;;;;;;;14.10;99.90;;;;;;4977541;28;19916;-73
2022/06/20 06:13:53;;;;;;;;;;;14.10;99.90;;;;;;4980431;28;19929;-73
2022/06/20 06:16:48;;;;;;;;;;;14.20;99.90;;;;;;4986486;28;20432;-74
2022/06/20 06:19:26;;;;;;;;;;;14.20;99.90;;;;;;4980058;28;19968;-72
2022/06/20 06:21:52;;;;;;;;;;;14.30;99.90;;;;;;4978839;28;19922;-75
2022/06/20 06:24:19;;;;;;;;;;;14.30;99.90;;;;;;4963060;28;20660;-76
2022/06/20 06:26:46;;;;;;;;;;;14.30;99.90;;;;;;4980597;28;19916;-75
2022/06/20 06:29:29;;;;;;;;;;;14.20;99.90;;;;;;4980292;28;19920;-74
2022/06/20 06:31:57;;;;;;;;;;;14.20;99.90;;;;;;4981116;28;19928;-75
2022/06/20 06:34:34;;;;;;;;;;;14.30;99.90;;;;;;4974646;28;20443;-76
2022/06/20 06:37:07;;;;;;;;;;;14.30;99.90;;;;;;4980237;28;19916;-76
2022/06/20 06:39:41;;;;;;;;;;;14.50;99.90;;;;;;4965662;28;21054;-72
2022/06/20 06:42:10;;;;;;;;;;;14.60;99.90;;;;;;4985045;28;20227;-72
2022/06/20 06:44:36;;;;;;;;;;;14.60;99.90;;;;;;4982630;28;20746;-71
2022/06/20 06:47:02;;;;;;;;;;;14.70;99.90;;;;;;4987374;28;19977;-72
2022/06/20 06:49:39;;;;;;;;;;;14.70;99.90;;;;;;4985545;28;20019;-74
2022/06/20 06:52:08;;;;;;;;;;;14.70;99.90;;;;;;4965543;28;19992;-73
2022/06/20 06:54:54;;;;;;;;;;;14.70;99.90;;;;;;4963927;28;19917;-72
2022/06/20 06:57:22;;;;;;;;;;;14.80;99.90;;;;;;4985234;28;20384;-73
2022/06/20 06:59:50;;;;;;;;;;;15.00;99.90;;;;;;4969933;28;19916;-72
2022/06/20 07:02:18;;;;;;;;;;;15.00;99.90;;;;;;4964459;28;20327;-71
2022/06/20 07:04:53;;;;;;;;;;;15.10;99.90;;;;;;4985890;28;20018;-73
2022/06/20 07:07:22;;;;;;;;;;;15.00;99.90;;;;;;4979600;28;19922;-72
2022/06/20 07:09:49;;;;;;;;;;;15.00;99.90;;;;;;4979503;28;20034;-73
2022/06/20 07:12:20;;;;;;;;;;;15.00;99.90;;;;;;4978703;28;20345;-73
2022/06/20 07:14:53;;;;;;;;;;;15.00;99.90;;;;;;4981795;28;21057;-76
2022/06/20 07:17:24;;;;;;;;;;;15.10;99.90;;;;;;4979227;28;21755;-74
2022/06/20 07:19:51;;;;;;;;;;;15.20;99.90;;;;;;4982414;28;19920;-73
2022/06/20 07:22:18;;;;;;;;;;;15.40;99.90;;;;;;4980243;28;20631;-76
2022/06/20 07:24:45;;;;;;;;;;;15.30;99.90;;;;;;4980129;28;20006;-71
2022/06/20 07:27:14;;;;;;;;;;;15.10;99.90;;;;;;4961157;28;19927;-72
2022/06/20 07:29:43;;;;;;;;;;;15.00;99.90;;;;;;4995404;28;19917;-71
2022/06/20 07:32:11;;;;;;;;;;;15.10;99.90;;;;;;5089721;28;20331;-72
2022/06/20 07:34:57;;;;;;;;;;;15.00;99.90;;;;;;5089462;28;19912;-76
2022/06/20 07:37:42;;;;;;;;;;;15.20;99.90;;;;;;5090817;28;19979;-71
2022/06/20 07:40:15;;;;;;;;;;;15.50;99.90;;;;;;5065990;28;20204;-72
2022/06/20 07:42:41;;;;;;;;;;;15.60;99.90;;;;;;5092451;28;19926;-73
2022/06/20 07:45:13;;;;;;;;;;;15.70;99.90;;;;;;5078311;28;20298;-72
2022/06/20 07:47:58;;;;;;;;;;;15.70;99.90;;;;;;4986399;28;19927;-73
2022/06/20 07:50:29;;;;;;;;;;;15.90;99.90;;;;;;4982127;28;20026;-75
2022/06/20 07:52:58;;;;;;;;;;;15.90;99.90;;;;;;4983107;28;20645;-74
2022/06/20 07:55:30;;;;;;;;;;;15.80;99.90;;;;;;4982933;28;20341;-74
2022/06/20 07:57:59;;;;;;;;;;;15.80;99.90;;;;;;4979149;28;20661;-70
2022/06/20 08:00:27;;;;;;;;;;;16.10;99.90;;;;;;4979612;28;19962;-71
2022/06/20 08:02:58;;;;;;;;;;;16.00;99.90;;;;;;4979901;28;19916;-73
2022/06/20 08:05:30;;;;;;;;;;;16.10;99.90;;;;;;4977776;28;20586;-71
2022/06/20 08:08:03;;;;;;;;;;;16.40;99.90;;;;;;4961712;28;19922;-74
2022/06/20 08:10:32;;;;;;;;;;;16.50;99.90;;;;;;4963403;28;19927;-72
2022/06/20 08:13:16;;;;;;;;;;;16.60;99.90;;;;;;4982782;28;20362;-72
2022/06/20 08:16:02;;;;;;;;;;;16.60;99.90;;;;;;4979956;28;19916;-74
2022/06/20 08:18:28;;;;;;;;;;;16.40;99.90;;;;;;4980752;28;20751;-74
2022/06/20 08:20:58;;;;;;;;;;;16.50;99.90;;;;;;4977031;28;19916;-75
2022/06/20 08:23:32;;;;;;;;;;;16.60;99.90;;;;;;4977107;28;20201;-74
2022/06/20 08:26:00;;;;;;;;;;;16.70;99.90;;;;;;4982934;28;19927;-72
2022/06/20 08:28:30;;;;;;;;;;;17.00;99.90;;;;;;4996794;28;20381;-73
2022/06/20 08:31:14;;;;;;;;;;;17.10;99.90;;;;;;5007513;28;19916;-75
2022/06/20 08:33:50;;;;;;;;;;;17.20;99.90;;;;;;4988218;28;20247;-74
2022/06/20 08:36:26;;;;;;;;;;;17.30;98.50;;;;;;4961752;28;19916;-90
2022/06/20 08:39:05;;;;;;;;;;;17.30;96.70;;;;;;4984381;28;19917;-74
2022/06/20 08:41:39;;;;;;;;;;;17.50;96.80;;;;;;4984292;28;20333;-73
2022/06/20 08:44:24;;;;;;;;;;;17.70;97.20;;;;;;4984798;28;23819;-75
2022/06/20 08:47:01;;;;;;;;;;;17.80;97.30;;;;;;4981408;28;21378;-73
2022/06/20 08:49:42;;;;;;;;;;;17.70;98.40;;;;;;4986508;28;19922;-77
2022/06/20 08:52:10;;;;;;;;;;;17.80;97.50;;;;;;4982811;28;19931;-74
2022/06/20 08:54:56;;;;;;;;;;;17.80;99.30;;;;;;4983365;28;19916;-80
2022/06/20 08:57:45;;;;;;;;;;;18.00;98.80;;;;;;4981199;28;20532;-74
2022/06/20 09:00:16;;;;;;;;;;;18.20;99.90;;;;;;4938102;28;19917;-75
2022/06/20 09:03:08;;;;;;;;;;;18.20;98.20;;;;;;4969597;28;20561;-72
2022/06/20 09:05:37;;;;;;;;;;;18.40;98.80;;;;;;4973723;28;19928;-74
2022/06/20 09:08:12;;;;;;;;;;;19.20;98.30;;;;;;4981633;28;20046;-75
2022/06/20 09:10:37;;;;;;;;;;;19.00;98.20;;;;;;4980567;28;19916;-75
2022/06/20 09:13:22;;;;;;;;;;;18.40;98.10;;;;;;4961724;28;20573;-73
2022/06/20 09:16:06;;;;;;;;;;;17.90;99.30;;;;;;4982095;28;19924;-73
2022/06/20 09:18:40;;;;;;;;;;;18.20;98.00;;;;;;4984270;28;21279;-79
2022/06/20 09:21:23;;;;;;;;;;;18.30;98.30;;;;;;4984265;28;19976;-79
2022/06/20 09:24:21;;;;;;;;;;;18.20;98.90;;;;;;4981815;28;20302;-74
2022/06/20 09:26:53;;;;;;;;;;;18.50;98.70;;;;;;4982749;28;20367;-74
2022/06/20 09:29:28;;;;;;;;;;;18.40;99.60;;;;;;5063009;28;20073;-74
2022/06/20 09:32:04;;;;;;;;;;;18.80;98.30;;;;;;5079502;28;20262;-73
2022/06/20 09:34:48;;;;;;;;;;;19.10;96.20;;;;;;5083985;28;19912;-73
2022/06/20 09:37:20;;;;;;;;;;;19.40;96.30;;;;;;5079917;28;19932;-74
2022/06/20 09:39:48;;;;;;;;;;;19.60;97.80;;;;;;5075278;28;19912;-74
2022/06/20 09:42:32;;;;;;;;;;;20.00;97.20;;;;;;5080309;28;19916;-74
2022/06/20 09:45:12;;;;;;;;;;;19.90;97.30;;;;;;5078282;28;20337;-77
2022/06/20 09:47:37;;;;;;;;;;;19.10;97.00;;;;;;5078118;28;20318;-77
2022/06/20 09:50:12;;;;;;;;;;;18.60;97.00;;;;;;5074752;28;19958;-75
2022/06/20 09:52:52;;;;;;;;;;;18.80;99.20;;;;;;5083050;28;19924;-74
2022/06/20 09:55:27;;;;;;;;;;;18.90;97.80;;;;;;5087211;28;19912;-80
2022/06/20 09:58:05;;;;;;;;;;;18.90;97.50;;;;;;5081642;28;19919;-73
2022/06/20 10:00:39;;;;;;;;;;;18.80;98.40;;;;;;5082997;28;19921;-76
2022/06/20 10:03:16;;;;;;;;;;;18.20;98.60;;;;;;5085187;28;19921;-74
2022/06/20 10:05:42;;;;;;;;;;;18.60;99.80;;;;;;4975721;28;19921;-77
2022/06/20 10:08:14;;;;;;;;;;;18.30;98.60;;;;;;4962510;28;19938;-74
2022/06/20 10:10:49;;;;;;;;;;;18.10;97.90;;;;;;4979940;28;20465;-75
2022/06/20 10:13:43;;;;;;;;;;;18.30;98.20;;;;;;4970676;28;20914;-77
2022/06/20 10:16:10;;;;;;;;;;;18.60;97.80;;;;;;4968388;28;23525;-79
2022/06/20 10:18:54;;;;;;;;;;;18.70;99.30;;;;;;4989529;28;19920;-76
2022/06/20 10:21:26;;;;;;;;;;;18.50;98.50;;;;;;4968965;28;20597;-75
2022/06/20 10:24:00;;;;;;;;;;;18.70;97.40;;;;;;4988511;28;20315;-79
2022/06/20 10:26:37;;;;;;;;;;;18.80;98.20;;;;;;4988302;28;19923;-83
2022/06/20 10:29:03;;;;;;;;;;;18.90;98.10;;;;;;4987566;28;19962;-75
2022/06/20 10:31:49;;;;;;;;;;;19.30;98.00;;;;;;4987788;28;23785;-76
2022/06/20 10:34:42;;;;;;;;;;;19.10;97.80;;;;;;4973656;28;21477;-74
2022/06/20 10:37:07;;;;;;;;;;;19.90;97.60;;;;;;4983613;28;19923;-78
2022/06/20 10:40:02;;;;;;;;;;;19.30;98.50;;;;;;4971593;28;20707;-79
2022/06/20 10:42:33;;;;;;;;;;;19.20;99.90;;;;;;4967642;28;19935;-75
2022/06/20 10:45:18;;;;;;;;;;;19.30;98.40;;;;;;4983517;28;20323;-75
2022/06/20 10:47:43;;;;;;;;;;;19.20;98.20;;;;;;4988481;28;19962;-75
2022/06/20 10:50:18;;;;;;;;;;;19.50;98.40;;;;;;4971084;28;20371;-72
2022/06/20 10:52:44;;;;;;;;;;;19.40;97.90;;;;;;4987310;28;19923;-75
2022/06/20 10:55:28;;;;;;;;;;;19.50;98.90;;;;;;4981532;28;20014;-76
2022/06/20 10:58:02;;;;;;;;;;;19.40;97.70;;;;;;4988294;28;20012;-74
2022/06/20 11:00:29;;;;;;;;;;;19.40;97.70;;;;;;4967467;28;19935;-75
2022/06/20 11:03:13;;;;;;;;;;;18.60;98.80;;;;;;4984796;28;20067;-77
2022/06/20 11:05:39;;;;;;;;;;;18.20;99.90;;;;;;4985257;28;19916;-74
2022/06/20 11:08:08;;;;;;;;;;;18.60;99.90;;;;;;5050888;28;19964;-76
2022/06/20 11:10:42;;;;;;;;;;;18.80;99.00;;;;;;5075107;28;20686;-77
2022/06/20 11:13:24;;;;;;;;;;;19.00;99.90;;;;;;5077115;28;20323;-77
2022/06/20 11:15:53;;;;;;;;;;;18.90;99.90;;;;;;5088874;28;20007;-76
2022/06/20 11:18:24;;;;;;;;;;;18.70;99.90;;;;;;5089682;28;19912;-76
2022/06/20 11:20:54;;;;;;;;;;;18.20;99.90;;;;;;5087122;28;20303;-77
2022/06/20 11:23:21;;;;;;;;;;;18.70;99.90;;;;;;5074480;28;19916;-77
2022/06/20 11:26:07;;;;;;;;;;;18.30;99.60;;;;;;5070223;28;19955;-77
2022/06/20 11:28:48;;;;;;;;;;;17.70;99.90;;;;;;5075525;28;20475;-76
2022/06/20 11:31:33;;;;;;;;;;;17.80;99.90;;;;;;5088394;28;19916;-74
2022/06/20 11:34:09;;;;;;;;;;;17.90;99.90;;;;;;5070874;28;19920;-75
2022/06/20 11:36:51;;;;;;;;;;;18.00;99.90;;;;;;5087024;28;19924;-80
2022/06/20 11:39:29;;;;;;;;;;;18.80;99.30;;;;;;5077057;28;19969;-84
2022/06/20 11:41:56;;;;;;;;;;;18.40;99.70;;;;;;5082173;28;19919;-75
2022/06/20 11:44:24;;;;;;;;;;;18.00;99.70;;;;;;5076398;28;19921;-77
2022/06/20 11:46:50;;;;;;;;;;;18.10;99.90;;;;;;5085633;28;19913;-76
2022/06/20 11:49:34;;;;;;;;;;;18.20;99.90;;;;;;5033209;28;19927;-74
2022/06/20 11:52:00;;;;;;;;;;;18.10;99.90;;;;;;4984323;28;19922;-73
2022/06/20 11:54:25;;;;;;;;;;;18.70;99.90;;;;;;4978222;28;20230;-81
2022/06/20 11:57:09;;;;;;;;;;;18.80;99.90;;;;;;4981402;28;19980;-76
2022/06/20 11:59:44;;;;;;;;;;;18.40;99.70;;;;;;4980659;28;19916;-79
2022/06/20 12:02:13;;;;;;;;;;;18.00;99.70;;;;;;4981455;28;20757;-74
2022/06/20 12:04:48;;;;;;;;;;;17.60;99.90;;;;;;4983317;28;21948;-76
2022/06/20 12:07:18;;;;;;;;;;;17.90;99.90;;;;;;4990122;28;19938;-78
2022/06/20 12:09:47;;;;;;;;;;;17.80;99.90;;;;;;4978826;28;19916;-73
2022/06/20 12:12:32;;;;;;;;;;;17.90;99.90;;;;;;4979471;28;20018;-79
2022/06/20 12:15:19;;;;;;;;;;;17.70;99.90;;;;;;4977300;28;19932;-73
2022/06/20 12:17:49;;;;;;;;;;;17.60;99.90;;;;;;4979413;28;19978;-73
2022/06/20 12:23:29;;;;;;;;;;;17.70;99.90;;;;;;4978734;28;19923;-74
2022/06/20 12:25:55;;;;;;;;;;;17.60;99.80;;;;;;4961885;28;19973;-75
2022/06/20 12:28:31;;;;;;;;;;;18.10;99.90;;;;;;4959010;28;19920;-75
2022/06/20 12:31:16;;;;;;;;;;;18.40;99.40;;;;;;4981270;28;19923;-77
2022/06/20 12:33:55;;;;;;;;;;;18.20;99.90;;;;;;4977278;28;19973;-74
2022/06/20 12:36:44;;;;;;;;;;;17.80;99.90;;;;;;4976665;28;20372;-74
2022/06/20 12:39:12;;;;;;;;;;;18.10;99.90;;;;;;4959210;28;19927;-72
2022/06/20 12:41:41;;;;;;;;;;;18.10;99.90;;;;;;4976113;28;19942;-80
2022/06/20 12:44:13;;;;;;;;;;;18.20;99.90;;;;;;4976064;28;19916;-75
2022/06/20 12:47:10;;;;;;;;;;;18.90;99.90;;;;;;4975385;28;19999;-78
2022/06/20 12:49:42;;;;;;;;;;;19.50;98.80;;;;;;4927898;28;21073;-74
2022/06/20 12:52:21;;;;;;;;;;;19.40;97.10;;;;;;4922980;28;19977;-75
2022/06/20 12:54:53;;;;;;;;;;;19.00;97.80;;;;;;4918033;28;19971;-74
2022/06/20 12:57:27;;;;;;;;;;;18.60;97.60;;;;;;4922336;28;20637;-76
2022/06/20 12:59:53;;;;;;;;;;;19.00;98.30;;;;;;4924899;28;20327;-78
2022/06/20 13:02:27;;;;;;;;;;;19.30;99.40;;;;;;4926633;28;19917;-75
2022/06/20 13:05:00;;;;;;;;;;;19.40;98.50;;;;;;4923705;28;21311;-75
2022/06/20 13:07:44;;;;;;;;;;;19.60;98.50;;;;;;4923549;28;20686;-76
2022/06/20 13:10:26;;;;;;;;;;;19.30;98.00;;;;;;4922778;28;21902;-78
2022/06/20 13:12:55;;;;;;;;;;;19.30;98.50;;;;;;4908186;28;19964;-74
2022/06/20 13:15:23;;;;;;;;;;;19.00;97.20;;;;;;4926311;28;24418;-75
2022/06/20 13:17:58;;;;;;;;;;;18.90;97.50;;;;;;4923023;28;19917;-80
2022/06/20 13:20:27;;;;;;;;;;;19.00;98.50;;;;;;4924353;28;19954;-75
2022/06/20 13:22:52;;;;;;;;;;;19.00;98.30;;;;;;4909931;28;20019;-75
2022/06/20 13:25:38;;;;;;;;;;;18.80;98.00;;;;;;4935534;28;20747;-76
2022/06/20 13:28:10;;;;;;;;;;;19.10;98.70;;;;;;4961796;28;19956;-76
2022/06/20 13:30:51;;;;;;;;;;;19.30;97.70;;;;;;4955301;28;20200;-73
2022/06/20 13:33:20;;;;;;;;;;;19.60;98.80;;;;;;4962016;28;20447;-75
2022/06/20 13:35:46;;;;;;;;;;;19.90;97.30;;;;;;4958000;28;19927;-73
2022/06/20 13:38:27;;;;;;;;;;;19.70;96.60;;;;;;4961910;28;19916;-75
2022/06/20 13:41:01;;;;;;;;;;;19.40;97.80;;;;;;4959995;28;19920;-75
2022/06/20 13:43:26;;;;;;;;;;;19.00;97.00;;;;;;4958708;28;20067;-75
2022/06/20 13:45:52;;;;;;;;;;;18.90;98.60;;;;;;4959554;28;19927;-72
2022/06/20 13:48:21;;;;;;;;;;;19.10;98.40;;;;;;4960092;28;20447;-74
2022/06/20 13:50:49;;;;;;;;;;;19.40;97.20;;;;;;4964363;28;19916;-73
2022/06/20 13:53:22;;;;;;;;;;;19.80;96.40;;;;;;4962309;28;19963;-78
2022/06/20 13:56:07;;;;;;;;;;;20.00;97.90;;;;;;4958610;28;19955;-73
2022/06/20 13:58:33;;;;;;;;;;;20.00;96.70;;;;;;4934636;28;19968;-76
2022/06/20 14:01:04;;;;;;;;;;;19.50;96.90;;;;;;4959178;28;20757;-75
2022/06/20 14:03:33;;;;;;;;;;;19.40;97.50;;;;;;4963020;28;19916;-75
2022/06/20 14:06:04;;;;;;;;;;;19.40;97.90;;;;;;4958795;28;19939;-77
2022/06/20 14:08:30;;;;;;;;;;;19.40;98.30;;;;;;4958829;28;20002;-75
2022/06/20 14:11:00;;;;;;;;;;;19.10;97.40;;;;;;4958338;28;21387;-76
2022/06/20 14:13:27;;;;;;;;;;;18.70;98.10;;;;;;4965993;28;19999;-78
2022/06/20 14:16:13;;;;;;;;;;;18.60;98.20;;;;;;4973888;28;19922;-81
2022/06/20 14:18:38;;;;;;;;;;;18.70;97.70;;;;;;4975388;28;20299;-75
2022/06/20 14:21:05;;;;;;;;;;;18.70;98.70;;;;;;4983569;28;20603;-74
2022/06/20 14:23:32;;;;;;;;;;;18.80;98.70;;;;;;4961226;28;19916;-77
2022/06/20 14:26:00;;;;;;;;;;;19.00;99.70;;;;;;4979529;28;24290;-76
2022/06/20 14:28:32;;;;;;;;;;;19.50;98.40;;;;;;4979408;28;21235;-73
2022/06/20 14:31:03;;;;;;;;;;;19.60;99.00;;;;;;4958773;28;19922;-73
2022/06/20 14:33:43;;;;;;;;;;;19.90;97.60;;;;;;4973149;28;19939;-79
2022/06/20 14:39:22;;;;;;;;;;;19.90;97.60;;;;;;4980219;28;20715;-73
2022/06/20 14:41:53;;;;;;;;;;;20.20;98.90;;;;;;4978289;28;21618;-72
2022/06/20 14:44:18;;;;;;;;;;;20.50;97.90;;;;;;4980566;28;20809;-76
2022/06/20 14:46:55;;;;;;;;;;;20.10;96.90;;;;;;4980556;28;19916;-73
2022/06/20 14:49:30;;;;;;;;;;;19.60;97.40;;;;;;4994767;28;20307;-79
2022/06/20 14:51:57;;;;;;;;;;;19.30;98.80;;;;;;4998702;28;20556;-83
2022/06/20 14:54:39;;;;;;;;;;;19.40;98.40;;;;;;4982151;28;20341;-77
2022/06/20 14:57:11;;;;;;;;;;;19.40;99.00;;;;;;4993765;28;19916;-79
2022/06/20 14:59:36;;;;;;;;;;;19.30;99.90;;;;;;5000100;28;23833;-77
2022/06/20 15:02:18;;;;;;;;;;;19.30;99.10;;;;;;4996726;28;20061;-75